Time;durP1;ratioP1;P1;durP2;ratioP2;P2;SDS_P1;SDS_P2;PMS_P1;PMS_P2;Temp;Humidity;BMP_temperature;BMP_pressure;BME280_temperature;BME280_humidity;BME280_pressure;Samples;Min_cycle;Max_cycle;Signal;HPM_P1;HPM_P2
2024/03/03 00:00:06;;;;;;;22.35;16.15;;;10.20;99.90;;;;;;5012314;28;20214;-73
2024/03/03 00:02:34;;;;;;;23.70;18.70;;;10.20;99.90;;;;;;5012186;28;20205;-73
2024/03/03 00:05:01;;;;;;;25.73;17.75;;;10.20;99.90;;;;;;5011664;28;20261;-72
2024/03/03 00:07:28;;;;;;;25.13;18.20;;;10.20;99.90;;;;;;5010444;28;20209;-75
2024/03/03 00:09:55;;;;;;;25.45;17.90;;;10.20;99.90;;;;;;5002815;28;20202;-75
2024/03/03 00:12:22;;;;;;;23.58;16.58;;;10.10;99.90;;;;;;5007169;28;20213;-76
2024/03/03 00:14:49;;;;;;;20.02;15.43;;;10.20;99.90;;;;;;5016460;28;20213;-79
2024/03/03 00:17:16;;;;;;;27.52;18.63;;;10.20;99.90;;;;;;5018789;28;20202;-73
2024/03/03 00:19:45;;;;;;;26.83;17.25;;;10.20;99.90;;;;;;5018251;28;20222;-74
2024/03/03 00:22:12;;;;;;;23.55;16.63;;;10.20;99.90;;;;;;5009196;28;20232;-76
2024/03/03 00:24:38;;;;;;;26.85;18.92;;;10.20;99.90;;;;;;5010294;28;20279;-75
2024/03/03 00:27:05;;;;;;;24.17;16.67;;;10.10;99.90;;;;;;5012636;28;20259;-75
2024/03/03 00:29:33;;;;;;;26.42;18.45;;;10.10;99.90;;;;;;5003765;28;20269;-73
2024/03/03 00:32:00;;;;;;;27.88;17.80;;;10.10;99.90;;;;;;5012240;28;20229;-75
2024/03/03 00:34:26;;;;;;;26.85;19.08;;;10.10;99.90;;;;;;5018110;28;20218;-74
2024/03/03 00:36:56;;;;;;;23.60;18.67;;;10.10;99.90;;;;;;5023954;28;20213;-76
2024/03/03 00:39:23;;;;;;;24.65;18.85;;;10.00;99.90;;;;;;5013105;28;20244;-75
2024/03/03 00:41:50;;;;;;;24.38;17.77;;;10.00;99.90;;;;;;5016276;28;20205;-72
2024/03/03 00:44:17;;;;;;;28.83;21.33;;;10.00;99.90;;;;;;5014799;28;20221;-74
2024/03/03 00:46:46;;;;;;;29.95;20.20;;;10.00;99.90;;;;;;5014753;28;20204;-76
2024/03/03 00:49:13;;;;;;;27.65;21.30;;;10.00;99.90;;;;;;5016546;28;21075;-75
2024/03/03 00:51:40;;;;;;;32.53;18.98;;;9.90;99.90;;;;;;5020850;28;20199;-75
2024/03/03 00:54:09;;;;;;;28.58;21.58;;;9.90;99.90;;;;;;5018315;28;20228;-76
2024/03/03 00:56:36;;;;;;;28.13;19.55;;;9.90;99.90;;;;;;5010658;28;20201;-76
2024/03/03 00:59:03;;;;;;;29.20;20.23;;;9.80;99.90;;;;;;5015800;28;20202;-78
2024/03/03 01:01:30;;;;;;;27.55;19.10;;;9.80;99.90;;;;;;5007994;28;20198;-75
2024/03/03 01:03:57;;;;;;;33.47;22.35;;;9.80;99.90;;;;;;5012754;28;20287;-75
2024/03/03 01:06:24;;;;;;;24.88;17.60;;;9.70;99.90;;;;;;5014482;28;20272;-80
2024/03/03 01:08:51;;;;;;;27.45;18.17;;;9.80;99.90;;;;;;5014694;28;20206;-76
2024/03/03 01:11:21;;;;;;;26.20;18.05;;;9.80;99.90;;;;;;5018727;28;20202;-75
2024/03/03 01:13:48;;;;;;;25.65;17.80;;;9.80;99.90;;;;;;5010869;28;20229;-74
2024/03/03 01:16:15;;;;;;;25.27;18.60;;;9.80;99.90;;;;;;5017174;28;20208;-74
2024/03/03 01:18:42;;;;;;;23.30;17.75;;;9.80;99.90;;;;;;5015320;28;20264;-74
2024/03/03 01:21:10;;;;;;;25.63;17.77;;;9.80;99.90;;;;;;5015063;28;20262;-74
2024/03/03 01:23:37;;;;;;;26.98;19.02;;;9.70;99.90;;;;;;5012425;28;20258;-75
2024/03/03 01:26:04;;;;;;;26.15;19.38;;;9.70;99.90;;;;;;5011332;28;20240;-75
2024/03/03 01:28:33;;;;;;;29.15;20.52;;;9.70;99.90;;;;;;5018749;28;20207;-75
2024/03/03 01:30:59;;;;;;;27.42;19.00;;;9.70;99.90;;;;;;5010498;28;20664;-74
2024/03/03 01:33:26;;;;;;;27.55;18.77;;;9.60;99.90;;;;;;5015083;28;20217;-74
2024/03/03 01:35:54;;;;;;;26.90;18.33;;;9.60;99.90;;;;;;5014478;28;20205;-71
2024/03/03 01:38:21;;;;;;;27.08;19.30;;;9.60;99.90;;;;;;5014878;28;20258;-77
2024/03/03 01:40:51;;;;;;;27.02;17.35;;;9.60;99.90;;;;;;5014943;28;20253;-73
2024/03/03 01:43:18;;;;;;;28.30;18.55;;;9.60;99.90;;;;;;5013950;28;20300;-77
2024/03/03 01:45:46;;;;;;;25.70;19.48;;;9.50;99.90;;;;;;5013228;28;20273;-76
2024/03/03 01:48:14;;;;;;;27.00;19.90;;;9.40;99.90;;;;;;5014464;28;20211;-74
2024/03/03 01:50:42;;;;;;;24.33;15.60;;;9.40;99.90;;;;;;5013925;28;20210;-72
2024/03/03 01:53:12;;;;;;;30.50;20.20;;;9.40;99.90;;;;;;5014385;28;20324;-74
2024/03/03 01:55:40;;;;;;;27.27;21.15;;;9.40;99.90;;;;;;5013220;28;20217;-74
2024/03/03 01:58:10;;;;;;;27.85;19.17;;;9.40;99.90;;;;;;5013825;28;20205;-74
2024/03/03 02:00:38;;;;;;;28.02;19.50;;;9.40;99.90;;;;;;5007548;28;20206;-74
2024/03/03 02:03:09;;;;;;;30.13;20.20;;;9.30;99.90;;;;;;5013259;28;20228;-73
2024/03/03 02:05:37;;;;;;;31.58;20.35;;;9.30;99.90;;;;;;5018664;28;20224;-76
2024/03/03 02:08:05;;;;;;;29.55;18.15;;;9.30;99.90;;;;;;5014262;28;20252;-76
2024/03/03 02:10:33;;;;;;;29.45;20.27;;;9.20;99.90;;;;;;5013254;28;20240;-73
2024/03/03 02:13:00;;;;;;;25.92;18.88;;;9.20;99.90;;;;;;5011098;28;20229;-76
2024/03/03 02:15:27;;;;;;;30.42;20.77;;;9.20;99.90;;;;;;5013297;28;20636;-77
2024/03/03 02:17:56;;;;;;;31.27;20.02;;;9.20;99.90;;;;;;5014322;28;20197;-74
2024/03/03 02:20:24;;;;;;;30.42;21.48;;;9.20;99.90;;;;;;5006372;28;20221;-72
2024/03/03 02:22:53;;;;;;;32.72;19.05;;;9.20;99.90;;;;;;5013016;28;20692;-74
2024/03/03 02:25:20;;;;;;;29.50;20.48;;;9.20;99.90;;;;;;5006785;28;20213;-74
2024/03/03 02:27:48;;;;;;;32.92;20.38;;;9.10;99.90;;;;;;5009860;28;20275;-74
2024/03/03 02:30:15;;;;;;;32.20;19.85;;;9.10;99.90;;;;;;5014812;28;20264;-73
2024/03/03 02:32:42;;;;;;;29.52;20.10;;;9.10;99.90;;;;;;5012701;28;20267;-75
2024/03/03 02:35:09;;;;;;;28.95;20.02;;;9.10;99.90;;;;;;5010969;28;20217;-74
2024/03/03 02:37:37;;;;;;;39.47;20.77;;;9.10;99.90;;;;;;5002794;28;20213;-73
2024/03/03 02:40:09;;;;;;;27.98;18.15;;;9.10;99.90;;;;;;5013793;28;20205;-78
2024/03/03 02:42:36;;;;;;;29.27;20.00;;;9.00;99.90;;;;;;5004607;28;20206;-76
2024/03/03 02:45:04;;;;;;;30.08;21.77;;;9.00;99.90;;;;;;5018297;28;20230;-74
2024/03/03 02:47:31;;;;;;;30.40;20.20;;;8.90;99.90;;;;;;5014361;28;20193;-73
2024/03/03 02:49:58;;;;;;;30.50;21.52;;;8.90;99.90;;;;;;5004956;28;20197;-73
2024/03/03 02:52:25;;;;;;;26.95;17.40;;;8.80;99.90;;;;;;5014852;28;20243;-75
2024/03/03 02:54:52;;;;;;;30.58;21.73;;;8.80;99.90;;;;;;5012597;28;20198;-73
2024/03/03 02:57:20;;;;;;;30.30;21.85;;;8.80;99.90;;;;;;5013218;28;20268;-73
2024/03/03 02:59:48;;;;;;;28.50;20.83;;;8.70;99.90;;;;;;5001100;28;20217;-74
2024/03/03 03:02:15;;;;;;;31.00;21.13;;;8.70;99.90;;;;;;5013440;28;20270;-73
2024/03/03 03:04:42;;;;;;;30.00;20.50;;;8.70;99.90;;;;;;5011279;28;20233;-74
2024/03/03 03:07:09;;;;;;;29.60;21.60;;;8.60;99.90;;;;;;5012406;28;20205;-74
2024/03/03 03:09:36;;;;;;;31.95;20.80;;;8.60;99.90;;;;;;5012976;28;20233;-74
2024/03/03 03:12:03;;;;;;;36.42;22.23;;;8.50;99.90;;;;;;5012391;28;20201;-75
2024/03/03 03:14:32;;;;;;;32.92;20.13;;;8.40;99.90;;;;;;5012123;28;20221;-76
2024/03/03 03:16:59;;;;;;;32.38;20.83;;;8.40;99.90;;;;;;5013053;28;20233;-72
2024/03/03 03:19:28;;;;;;;30.08;19.75;;;8.30;99.90;;;;;;5012498;28;20198;-72
2024/03/03 03:21:55;;;;;;;37.50;21.63;;;8.30;99.90;;;;;;5013439;28;20212;-73
2024/03/03 03:26:50;;;;;;;37.10;22.33;;;8.30;99.90;;;;;;5031610;28;20574;-74
2024/03/03 03:29:18;;;;;;;31.83;23.08;;;8.20;99.90;;;;;;5023360;28;20677;-74
2024/03/03 03:31:47;;;;;;;32.05;19.55;;;8.20;99.90;;;;;;5028378;28;20205;-73
2024/03/03 03:34:14;;;;;;;30.67;21.83;;;8.20;99.90;;;;;;5023651;28;20224;-76
2024/03/03 03:36:41;;;;;;;33.80;21.70;;;8.30;99.90;;;;;;5022029;28;20266;-74
2024/03/03 03:39:13;;;;;;;36.03;22.60;;;8.20;99.90;;;;;;5018650;28;20201;-75
2024/03/03 03:41:45;;;;;;;31.23;22.17;;;8.20;99.90;;;;;;5028834;28;20213;-75
2024/03/03 03:44:12;;;;;;;38.70;23.15;;;8.10;99.90;;;;;;5025082;28;20229;-73
2024/03/03 03:46:39;;;;;;;34.35;21.15;;;8.10;99.90;;;;;;5029204;28;20244;-75
2024/03/03 03:49:09;;;;;;;35.95;23.85;;;8.10;99.90;;;;;;5021894;28;20287;-73
2024/03/03 03:51:36;;;;;;;30.90;20.08;;;8.10;99.90;;;;;;5031421;28;20231;-73
2024/03/03 03:54:03;;;;;;;28.33;20.48;;;8.10;99.90;;;;;;5024360;28;20225;-74
2024/03/03 03:56:30;;;;;;;33.22;21.83;;;8.10;99.90;;;;;;5018287;28;20627;-73
2024/03/03 03:58:58;;;;;;;29.92;20.90;;;8.10;99.90;;;;;;5018304;28;20197;-73
2024/03/03 04:01:27;;;;;;;32.97;21.55;;;8.10;99.90;;;;;;5029502;28;20662;-75
2024/03/03 04:03:54;;;;;;;35.40;21.92;;;8.10;99.90;;;;;;5018040;28;20228;-76
2024/03/03 04:06:23;;;;;;;33.88;20.92;;;8.20;99.90;;;;;;5019433;28;20205;-75
2024/03/03 04:08:50;;;;;;;33.72;21.40;;;8.20;99.90;;;;;;5031564;28;20200;-75
2024/03/03 04:11:16;;;;;;;35.78;24.10;;;8.20;99.90;;;;;;5024925;28;20205;-74
2024/03/03 04:13:44;;;;;;;32.65;21.48;;;8.20;99.90;;;;;;5035119;28;20220;-74
2024/03/03 04:16:10;;;;;;;36.92;21.48;;;8.20;99.90;;;;;;5028634;28;20193;-74
2024/03/03 04:18:38;;;;;;;38.97;23.70;;;8.20;99.90;;;;;;5030103;28;20200;-73
2024/03/03 04:21:05;;;;;;;34.83;23.23;;;8.10;99.90;;;;;;5028787;28;20239;-73
2024/03/03 04:23:33;;;;;;;34.20;22.17;;;8.10;99.90;;;;;;5032941;28;20229;-72
2024/03/03 04:26:05;;;;;;;42.05;23.85;;;8.10;99.90;;;;;;5028607;28;20274;-73
2024/03/03 04:28:32;;;;;;;39.30;25.50;;;8.00;99.90;;;;;;5027805;28;20204;-74
2024/03/03 04:30:59;;;;;;;41.75;22.80;;;8.00;99.90;;;;;;5026053;28;20246;-74
2024/03/03 04:33:26;;;;;;;32.80;21.85;;;8.00;99.90;;;;;;5027939;28;20279;-75
2024/03/03 04:35:53;;;;;;;38.55;23.92;;;8.00;99.90;;;;;;5028229;28;20237;-74
2024/03/03 04:38:20;;;;;;;38.30;21.92;;;8.00;99.90;;;;;;5029178;28;20675;-73
2024/03/03 04:40:48;;;;;;;33.25;22.50;;;7.90;99.90;;;;;;5035491;28;20636;-74
2024/03/03 04:43:15;;;;;;;35.92;23.67;;;7.90;99.90;;;;;;5030953;28;20221;-74
2024/03/03 04:45:42;;;;;;;37.03;22.58;;;7.90;99.90;;;;;;5033799;28;20224;-75
2024/03/03 04:48:09;;;;;;;37.55;24.83;;;7.90;99.90;;;;;;5035473;28;20271;-76
2024/03/03 04:50:36;;;;;;;37.42;24.08;;;7.90;99.90;;;;;;5033513;28;20631;-74
2024/03/03 04:53:03;;;;;;;35.60;23.63;;;7.80;99.90;;;;;;5022553;28;20586;-73
2024/03/03 04:55:30;;;;;;;36.50;23.70;;;7.80;99.90;;;;;;5028429;28;20287;-74
2024/03/03 04:57:59;;;;;;;33.78;21.35;;;7.80;99.90;;;;;;5025160;28;20201;-75
2024/03/03 05:00:25;;;;;;;44.80;26.48;;;7.80;99.90;;;;;;5027818;28;20633;-76
2024/03/03 05:02:52;;;;;;;40.53;25.38;;;7.80;99.90;;;;;;5028558;28;20624;-76
2024/03/03 05:05:20;;;;;;;36.00;24.20;;;7.80;99.90;;;;;;5029771;28;20574;-73
2024/03/03 05:07:47;;;;;;;41.03;27.15;;;7.80;99.90;;;;;;5027558;28;20220;-75
2024/03/03 05:10:14;;;;;;;33.65;23.70;;;7.80;99.90;;;;;;5036541;28;20235;-72
2024/03/03 05:12:41;;;;;;;44.30;28.15;;;7.80;99.90;;;;;;5032630;28;20245;-73
2024/03/03 05:15:10;;;;;;;45.45;26.48;;;7.70;99.90;;;;;;5034757;28;20201;-77
2024/03/03 05:17:37;;;;;;;40.83;25.60;;;7.70;99.90;;;;;;5026573;28;20201;-76
2024/03/03 05:20:05;;;;;;;43.03;24.20;;;7.60;99.90;;;;;;5026468;28;20233;-73
2024/03/03 05:22:32;;;;;;;47.72;26.67;;;7.60;99.90;;;;;;5032449;28;20596;-75
2024/03/03 05:24:59;;;;;;;38.97;26.38;;;7.60;99.90;;;;;;5023105;28;20698;-72
2024/03/03 05:27:27;;;;;;;43.33;25.80;;;7.60;99.90;;;;;;5017455;28;20206;-76
2024/03/03 05:29:53;;;;;;;44.85;29.38;;;7.60;99.90;;;;;;5026004;28;20236;-75
2024/03/03 05:32:22;;;;;;;41.05;25.27;;;7.70;99.90;;;;;;5032589;28;20208;-75
2024/03/03 05:34:49;;;;;;;49.55;28.02;;;7.60;99.90;;;;;;5027141;28;20198;-72
2024/03/03 05:37:16;;;;;;;44.25;26.55;;;7.60;99.90;;;;;;5022356;28;20254;-73
2024/03/03 05:39:43;;;;;;;40.65;26.35;;;7.60;99.90;;;;;;5034825;28;20201;-76
2024/03/03 05:42:11;;;;;;;37.40;26.20;;;7.60;99.90;;;;;;5023763;28;20579;-78
2024/03/03 05:44:38;;;;;;;39.15;24.48;;;7.50;99.90;;;;;;5030898;28;20242;-74
2024/03/03 05:47:05;;;;;;;43.00;26.35;;;7.50;99.90;;;;;;5022463;28;20205;-75
2024/03/03 05:49:34;;;;;;;41.63;25.67;;;7.50;99.90;;;;;;5033036;28;20201;-73
2024/03/03 05:52:01;;;;;;;48.35;28.67;;;7.40;99.90;;;;;;5027946;28;20559;-73
2024/03/03 05:54:28;;;;;;;50.95;29.88;;;7.40;99.90;;;;;;5022140;28;20230;-75
2024/03/03 05:56:55;;;;;;;42.53;27.42;;;7.40;99.90;;;;;;5023851;28;20205;-75
2024/03/03 05:59:23;;;;;;;43.72;26.65;;;7.40;99.90;;;;;;5016747;28;20201;-73
2024/03/03 06:01:52;;;;;;;45.65;28.40;;;7.30;99.90;;;;;;5031483;28;20295;-75
2024/03/03 06:04:19;;;;;;;52.92;29.88;;;7.30;99.90;;;;;;5023012;28;20221;-75
2024/03/03 06:06:47;;;;;;;50.55;30.60;;;7.30;99.90;;;;;;5032709;28;20260;-73
2024/03/03 06:09:14;;;;;;;45.22;26.80;;;7.20;99.90;;;;;;5018444;28;20198;-75
2024/03/03 06:11:42;;;;;;;46.85;27.58;;;7.20;99.90;;;;;;5033396;28;20258;-74
2024/03/03 06:14:09;;;;;;;45.55;30.00;;;7.30;99.90;;;;;;5026679;28;20643;-74
2024/03/03 06:16:36;;;;;;;45.20;27.85;;;7.30;99.90;;;;;;5026744;28;20725;-74
2024/03/03 06:19:04;;;;;;;49.85;28.98;;;7.30;99.90;;;;;;5021834;28;20259;-74
2024/03/03 06:21:31;;;;;;;51.55;31.05;;;7.20;99.90;;;;;;5015757;28;20233;-73
2024/03/03 06:23:59;;;;;;;43.45;27.63;;;7.10;99.90;;;;;;5034965;28;20229;-74
2024/03/03 06:26:28;;;;;;;51.95;31.27;;;7.20;99.90;;;;;;5027756;28;20228;-72
2024/03/03 06:28:55;;;;;;;53.35;27.38;;;7.20;99.90;;;;;;5033900;28;20200;-74
2024/03/03 06:31:22;;;;;;;52.00;31.27;;;7.20;99.90;;;;;;5034504;28;20200;-75
2024/03/03 06:33:49;;;;;;;45.03;27.40;;;7.30;99.90;;;;;;5034591;28;20227;-75
2024/03/03 06:36:46;;;;;;;49.95;29.50;;;7.40;99.90;;;;;;5034273;28;20196;-76
2024/03/03 06:39:14;;;;;;;43.05;28.00;;;7.40;99.90;;;;;;5028377;28;20224;-73
2024/03/03 06:41:43;;;;;;;45.85;29.95;;;7.40;99.90;;;;;;5024622;28;20263;-73
2024/03/03 06:44:16;;;;;;;53.13;30.92;;;7.40;99.90;;;;;;5033251;28;20224;-74
2024/03/03 06:46:44;;;;;;;37.95;24.90;;;7.50;99.90;;;;;;5017984;28;20325;-74
2024/03/03 06:49:10;;;;;;;49.58;29.48;;;7.60;99.90;;;;;;5021455;28;20296;-75
2024/03/03 06:51:38;;;;;;;48.75;27.95;;;7.60;99.90;;;;;;5026658;28;20667;-73
2024/03/03 06:54:06;;;;;;;44.17;25.05;;;7.70;99.90;;;;;;5029580;28;20259;-73
2024/03/03 06:56:34;;;;;;;41.00;27.45;;;7.80;99.90;;;;;;5026898;28;20574;-74
2024/03/03 06:59:01;;;;;;;52.10;29.52;;;7.80;99.90;;;;;;5031360;28;20205;-74
2024/03/03 07:01:30;;;;;;;40.50;27.02;;;7.90;99.90;;;;;;5021734;28;20615;-72
2024/03/03 07:04:18;;;;;;;41.83;26.88;;;8.10;99.90;;;;;;5026358;28;20220;-74
2024/03/03 07:06:45;;;;;;;37.17;24.15;;;8.40;99.90;;;;;;5031737;28;20615;-73
2024/03/03 07:09:12;;;;;;;31.98;23.25;;;9.00;99.90;;;;;;5026900;28;20631;-73
2024/03/03 07:11:41;;;;;;;39.97;23.95;;;9.80;99.90;;;;;;5021854;28;20635;-75
2024/03/03 07:14:08;;;;;;;24.40;18.00;;;10.70;99.90;;;;;;5026277;28;20220;-74
2024/03/03 07:16:35;;;;;;;31.80;22.00;;;11.60;99.90;;;;;;5032448;28;20201;-72
2024/03/03 07:19:03;;;;;;;34.70;21.63;;;12.40;99.90;;;;;;5018463;28;20225;-73
2024/03/03 07:21:30;;;;;;;31.25;20.30;;;13.10;99.90;;;;;;5025898;28;20205;-75
2024/03/03 07:23:57;;;;;;;33.03;21.13;;;13.50;99.90;;;;;;5020814;28;20278;-71
2024/03/03 07:26:24;;;;;;;29.10;20.13;;;13.90;99.90;;;;;;5027233;28;20587;-72
2024/03/03 07:28:53;;;;;;;25.05;19.25;;;14.20;99.90;;;;;;5020954;28;20200;-76
2024/03/03 07:31:20;;;;;;;23.90;17.85;;;14.60;99.90;;;;;;5024078;28;20198;-73
2024/03/03 07:33:47;;;;;;;23.33;18.15;;;14.80;99.90;;;;;;5027350;28;20224;-74
2024/03/03 07:36:14;;;;;;;31.07;19.97;;;15.00;99.90;;;;;;5025952;28;20657;-71
2024/03/03 07:38:41;;;;;;;25.23;18.83;;;15.20;99.90;;;;;;5024275;28;20443;-74
2024/03/03 07:41:08;;;;;;;22.60;18.40;;;15.70;99.90;;;;;;5023381;28;20461;-72
2024/03/03 07:43:35;;;;;;;27.33;19.87;;;16.00;99.90;;;;;;5028401;28;20477;-76
2024/03/03 07:46:04;;;;;;;26.10;19.03;;;16.20;99.90;;;;;;5023603;28;20486;-74
2024/03/03 07:48:31;;;;;;;21.77;17.10;;;16.60;99.90;;;;;;5024099;28;20947;-75
2024/03/03 07:50:58;;;;;;;26.10;18.00;;;17.10;99.70;;;;;;5027215;28;20447;-74
2024/03/03 07:53:25;;;;;;;26.00;18.60;;;17.70;98.10;;;;;;5029479;28;20471;-71
2024/03/03 07:55:52;;;;;;;27.13;19.17;;;18.00;97.00;;;;;;5029103;28;20467;-74
2024/03/03 07:58:19;;;;;;;23.67;17.90;;;18.40;96.50;;;;;;5030202;28;20440;-75
2024/03/03 08:00:46;;;;;;;25.43;19.70;;;18.70;95.90;;;;;;5026092;28;20433;-74
2024/03/03 08:03:14;;;;;;;21.23;18.10;;;19.20;95.60;;;;;;5031342;28;20463;-74
2024/03/03 08:05:41;;;;;;;25.20;17.90;;;19.70;94.20;;;;;;5023393;28;21008;-73
2024/03/03 08:08:08;;;;;;;26.20;18.53;;;19.90;93.90;;;;;;5021127;28;20480;-74
2024/03/03 08:10:36;;;;;;;23.53;19.20;;;20.90;93.00;;;;;;5030649;28;20513;-75
2024/03/03 08:13:03;;;;;;;21.70;17.17;;;21.40;91.60;;;;;;5031206;28;20502;-74
2024/03/03 08:15:30;;;;;;;21.60;16.70;;;22.10;90.90;;;;;;5023610;28;20800;-74
2024/03/03 08:17:57;;;;;;;19.80;17.53;;;22.00;90.60;;;;;;5022664;28;20440;-71
2024/03/03 08:20:25;;;;;;;22.33;18.50;;;21.90;90.10;;;;;;5028423;28;20445;-73
2024/03/03 08:22:52;;;;;;;21.87;18.07;;;22.30;89.60;;;;;;5015889;28;20977;-74
2024/03/03 08:25:20;;;;;;;22.13;19.83;;;22.80;89.00;;;;;;5018933;28;20483;-73
2024/03/03 08:27:47;;;;;;;24.40;18.37;;;22.50;87.60;;;;;;5026888;28;20815;-74
2024/03/03 08:30:14;;;;;;;22.00;16.97;;;23.00;87.20;;;;;;5026003;28;20542;-75
2024/03/03 08:32:41;;;;;;;20.73;17.67;;;23.00;86.40;;;;;;5026968;28;20440;-73
2024/03/03 08:35:09;;;;;;;21.37;17.90;;;22.50;85.70;;;;;;5020596;28;20519;-76
2024/03/03 08:37:37;;;;;;;22.10;16.90;;;22.60;86.60;;;;;;5019149;28;20827;-73
2024/03/03 08:40:08;;;;;;;23.37;16.57;;;23.00;86.20;;;;;;5025079;28;20444;-74
2024/03/03 08:42:35;;;;;;;21.53;17.73;;;23.00;85.50;;;;;;5026841;28;20475;-72
2024/03/03 08:45:02;;;;;;;21.57;18.80;;;23.30;84.70;;;;;;5025606;28;20441;-72
2024/03/03 08:47:28;;;;;;;20.93;17.27;;;23.50;84.00;;;;;;5024738;28;20483;-72
2024/03/03 08:49:55;;;;;;;26.20;19.47;;;23.50;84.60;;;;;;5021347;28;20456;-72
2024/03/03 08:52:22;;;;;;;21.03;17.60;;;23.80;83.70;;;;;;5028430;28;20859;-72
2024/03/03 08:54:50;;;;;;;21.10;18.20;;;23.70;83.30;;;;;;5025733;28;20528;-74
2024/03/03 08:57:17;;;;;;;19.90;17.67;;;24.20;82.60;;;;;;5028952;28;20482;-72
2024/03/03 08:59:44;;;;;;;22.40;16.13;;;24.60;81.00;;;;;;5023816;28;21002;-74
2024/03/03 09:02:11;;;;;;;18.37;16.57;;;24.80;81.00;;;;;;5023837;28;20468;-73
2024/03/03 09:04:38;;;;;;;19.47;17.47;;;25.40;79.90;;;;;;5032800;28;20530;-75
2024/03/03 09:07:07;;;;;;;20.90;18.80;;;25.20;79.40;;;;;;5028247;28;20510;-74
2024/03/03 09:09:34;;;;;;;20.13;16.30;;;25.40;78.70;;;;;;5034132;28;20447;-74
2024/03/03 09:12:03;;;;;;;19.03;15.90;;;25.60;78.90;;;;;;5029786;28;20507;-74
2024/03/03 09:14:31;;;;;;;21.17;17.70;;;25.50;78.30;;;;;;5034477;28;20476;-76
2024/03/03 09:16:58;;;;;;;19.30;17.33;;;25.50;78.50;;;;;;5032640;28;21014;-76
2024/03/03 09:19:25;;;;;;;22.87;20.37;;;25.10;79.50;;;;;;5035197;28;20508;-76
2024/03/03 09:21:52;;;;;;;24.73;21.17;;;25.10;78.20;;;;;;5027273;28;20440;-71
2024/03/03 09:27:51;;;;;;;27.40;21.37;;;25.00;78.60;;;;;;5049096;28;20438;-85
2024/03/03 09:33:55;;;;;;;23.17;19.87;;;25.20;77.90;;;;;;5041984;28;20452;-85
2024/03/03 09:47:24;;;;;;;24.60;20.03;;;25.00;77.20;;;;;;4922750;29;20500;-85
2024/03/03 10:07:45;;;;;;;26.73;22.87;;;25.30;78.50;;;;;;4878696;29;20629;-85
2024/03/03 10:10:19;;;;;;;27.97;22.97;;;25.00;78.20;;;;;;4954136;28;20492;-88
2024/03/03 10:12:48;;;;;;;27.23;22.97;;;23.40;80.20;;;;;;4980453;28;20552;-87
2024/03/03 10:15:22;;;;;;;30.27;23.67;;;23.00;81.70;;;;;;5022531;28;20501;-89
2024/03/03 10:17:49;;;;;;;31.13;25.97;;;22.30;83.20;;;;;;5036728;28;20486;-81
2024/03/03 10:20:16;;;;;;;29.70;24.07;;;21.90;83.80;;;;;;5036541;28;20454;-81
2024/03/03 10:22:45;;;;;;;26.80;21.80;;;21.90;84.70;;;;;;5041213;22;20905;-73
2024/03/03 10:25:15;;;;;;;27.20;23.93;;;21.90;84.80;;;;;;5014892;28;20760;-72
2024/03/03 10:27:43;;;;;;;26.47;22.07;;;21.80;85.00;;;;;;5013991;28;20455;-75
2024/03/03 10:30:12;;;;;;;29.53;23.77;;;21.90;85.60;;;;;;5018677;28;20877;-74
2024/03/03 10:32:39;;;;;;;27.33;23.60;;;22.00;85.30;;;;;;5013499;28;21007;-73
2024/03/03 10:35:11;;;;;;;28.67;23.90;;;21.90;86.00;;;;;;5013663;28;20471;-75
2024/03/03 10:37:48;;;;;;;26.37;23.67;;;21.90;85.70;;;;;;5014007;28;20494;-73
2024/03/03 10:40:17;;;;;;;29.13;24.60;;;21.80;85.20;;;;;;5026444;28;20453;-75
2024/03/03 10:42:44;;;;;;;27.63;24.57;;;21.30;85.50;;;;;;5025940;28;20924;-73
2024/03/03 10:45:11;;;;;;;29.60;24.10;;;20.60;86.50;;;;;;5013106;28;20462;-70
2024/03/03 10:47:38;;;;;;;29.10;25.20;;;20.20;87.70;;;;;;5014793;28;20445;-73
2024/03/03 10:50:08;;;;;;;25.70;22.90;;;20.10;88.80;;;;;;5029804;28;20449;-72
2024/03/03 10:52:39;;;;;;;31.13;24.47;;;19.80;90.00;;;;;;5032558;28;20453;-72
2024/03/03 10:55:09;;;;;;;33.70;25.20;;;19.50;90.40;;;;;;5025678;28;20534;-72
2024/03/03 10:57:38;;;;;;;32.90;24.20;;;19.10;91.00;;;;;;5028260;28;20546;-72
2024/03/03 11:00:11;;;;;;;28.33;24.77;;;18.70;91.50;;;;;;5025635;28;21013;-73
2024/03/03 11:02:39;;;;;;;31.90;23.23;;;18.50;91.90;;;;;;5029347;28;20452;-74
2024/03/03 11:05:07;;;;;;;33.40;25.77;;;18.30;92.50;;;;;;5019936;28;20436;-75
2024/03/03 11:07:36;;;;;;;29.10;23.90;;;18.30;92.60;;;;;;5013212;28;20444;-74
2024/03/03 11:10:05;;;;;;;29.60;26.03;;;18.30;92.70;;;;;;5015255;28;20527;-74
2024/03/03 11:12:36;;;;;;;29.93;25.37;;;18.20;92.80;;;;;;5014253;28;20565;-75
2024/03/03 11:15:06;;;;;;;32.37;25.77;;;18.10;93.00;;;;;;5025177;28;20471;-72
2024/03/03 11:17:36;;;;;;;33.33;25.80;;;18.10;92.90;;;;;;5015506;28;20561;-71
2024/03/03 11:20:07;;;;;;;32.10;25.27;;;18.00;93.20;;;;;;5026263;28;20447;-73
2024/03/03 11:22:42;;;;;;;33.87;25.40;;;17.70;93.30;;;;;;5021136;28;20443;-71
2024/03/03 11:25:18;;;;;;;34.90;26.37;;;17.50;93.40;;;;;;5016320;28;20473;-71
2024/03/03 11:27:51;;;;;;;38.63;27.37;;;17.40;93.80;;;;;;5027736;28;20520;-73
2024/03/03 11:30:21;;;;;;;37.33;26.17;;;17.10;93.80;;;;;;5018381;28;20448;-76
2024/03/03 11:32:49;;;;;;;30.70;24.47;;;17.30;94.40;;;;;;5021067;28;20507;-75
2024/03/03 11:35:16;;;;;;;36.03;27.17;;;17.40;93.80;;;;;;5020130;28;20496;-72
2024/03/03 11:37:43;;;;;;;41.67;28.97;;;17.20;94.10;;;;;;5017306;28;20569;-74
2024/03/03 11:40:16;;;;;;;35.30;27.13;;;16.90;94.50;;;;;;5018500;28;20446;-73
2024/03/03 11:42:45;;;;;;;33.00;27.27;;;16.90;94.60;;;;;;5023662;28;20514;-74
2024/03/03 11:45:12;;;;;;;31.97;26.97;;;16.70;94.90;;;;;;5019492;28;20456;-72
2024/03/03 11:47:47;;;;;;;37.17;30.10;;;16.70;95.20;;;;;;5013349;28;20497;-75
2024/03/03 11:50:19;;;;;;;37.10;26.63;;;16.50;95.40;;;;;;5016643;28;20451;-75
2024/03/03 11:52:47;;;;;;;36.47;27.60;;;16.50;95.60;;;;;;5029003;28;20530;-73
2024/03/03 11:55:17;;;;;;;32.97;25.60;;;16.40;95.70;;;;;;5021755;28;20437;-75
2024/03/03 11:57:47;;;;;;;39.40;30.07;;;16.30;95.90;;;;;;5020101;28;20519;-73
2024/03/03 12:00:16;;;;;;;35.83;28.70;;;16.20;96.00;;;;;;5015835;28;21088;-72
2024/03/03 12:02:46;;;;;;;35.90;27.20;;;16.00;96.40;;;;;;5028113;28;20524;-71
2024/03/03 12:05:15;;;;;;;35.63;27.93;;;15.90;96.60;;;;;;5029109;28;20445;-75
2024/03/03 12:07:43;;;;;;;37.13;29.40;;;15.90;96.70;;;;;;5022973;28;20505;-75
2024/03/03 12:10:17;;;;;;;36.87;29.87;;;16.00;96.70;;;;;;5020394;28;20438;-72
2024/03/03 12:12:48;;;;;;;38.07;28.67;;;16.00;96.80;;;;;;5013708;28;20474;-74
2024/03/03 12:15:18;;;;;;;36.07;28.87;;;16.00;96.90;;;;;;5018137;28;20502;-74
2024/03/03 12:17:47;;;;;;;34.70;26.17;;;16.10;96.90;;;;;;5021739;28;20515;-73
2024/03/03 12:20:17;;;;;;;31.93;27.27;;;16.00;96.90;;;;;;5012248;28;20250;-72
2024/03/03 12:22:45;;;;;;;38.27;28.70;;;15.90;97.00;;;;;;5021583;28;20479;-73
2024/03/03 12:25:12;;;;;;;35.97;29.00;;;15.80;97.40;;;;;;5016900;28;20463;-73
2024/03/03 12:27:39;;;;;;;39.08;28.80;;;15.70;97.40;;;;;;5023410;28;20507;-73
2024/03/03 12:30:11;;;;;;;37.50;28.17;;;15.60;97.80;;;;;;5030019;28;20205;-74
2024/03/03 12:32:38;;;;;;;34.97;27.07;;;15.70;98.10;;;;;;5024763;28;20200;-71
2024/03/03 12:35:08;;;;;;;46.63;31.95;;;15.70;98.10;;;;;;5021313;28;20494;-70
2024/03/03 12:37:35;;;;;;;34.15;28.45;;;15.70;98.00;;;;;;5018619;28;20225;-72
2024/03/03 12:40:03;;;;;;;36.00;28.30;;;15.80;98.20;;;;;;5022258;28;20197;-75
2024/03/03 12:42:30;;;;;;;38.20;29.67;;;15.90;98.10;;;;;;5029928;28;20521;-72
2024/03/03 12:44:57;;;;;;;33.57;26.10;;;15.90;98.00;;;;;;5021230;28;21006;-73
2024/03/03 12:47:24;;;;;;;42.80;31.50;;;16.10;98.00;;;;;;5019618;28;20469;-73
2024/03/03 12:49:51;;;;;;;37.40;29.50;;;16.20;97.90;;;;;;5031650;28;20524;-72
2024/03/03 12:52:20;;;;;;;42.97;31.27;;;16.30;97.80;;;;;;5023095;28;20502;-74
2024/03/03 12:54:48;;;;;;;36.80;30.37;;;16.30;97.70;;;;;;5024506;28;20514;-72
2024/03/03 12:57:16;;;;;;;38.43;28.70;;;16.20;97.70;;;;;;5027274;28;20480;-72
2024/03/03 12:59:43;;;;;;;36.73;27.23;;;16.20;97.80;;;;;;5018811;28;20920;-73
2024/03/03 13:02:13;;;;;;;41.07;29.70;;;16.20;97.90;;;;;;5041062;28;20490;-74
2024/03/03 13:04:40;;;;;;;35.33;27.83;;;16.10;97.80;;;;;;5018151;28;20870;-73
2024/03/03 13:07:09;;;;;;;39.38;28.77;;;15.80;98.20;;;;;;5023483;28;20439;-73
2024/03/03 13:09:37;;;;;;;40.53;31.30;;;15.90;98.50;;;;;;5021455;28;20218;-73
2024/03/03 13:12:06;;;;;;;36.20;28.77;;;15.80;98.50;;;;;;5016113;28;20229;-72